SondeTracker

Meteorological Radiosondes Database

Operations

Sounding was ended - last measurement: 2022-12-07 01:22:59z

MAP
About Radiosonde

Number: U3140561

Launch Site: Galeão (BR)

Type: RS41

AUX: NO

Frequency: 405.301 MHz

Max Speed: 104 km/h at 12185 m

Average Speed: 49.75 km/h

Max Altitude: 17386 m

Average Ascent Speed: 6.80 m/s

Average Descent Speed: 7.37 m/s

Status: UNKNOWN

Status Changes
Launch Site Type AUX Frequency Status Finder Landing Point Description Changes made by
APRS Statistics

Received Frames: 88

First Frame [UTC]: 2022-12-07 00:03:46z

Last Frame [UTC]: 2022-12-07 01:22:59z

Receivers: PU1XMG-14

Flight Time: 01:19:13 h

Distance From First Measurement: 50.24 km

Nearest City: Teresópolis (BR) [15.83 km]

Nearest Hunter: PU1JDI-11 [56.17 km]

Ground Altitude: 25 m

Distance from QTH: 0.00 km

APRS Data
Receiver Number Date/Time [UTC] φ λ Course [°] Speed [km/h] Altitude [m] Description
PU1XMG-14U31405612022-12-07 01:22:59-22.5238-42.87362242437Clb=-9.9m/s t=22.7C h=81.2% p=963.4hPa 405.301 MHz Type=RS41-SGP ser=U3140561 Rastreio por PU1XMG https://sondehub.org/U3140561 & https://radiosondy.info/sond
PU1XMG-14U31405612022-12-07 01:22:27-22.5233-42.873617620604Clb=-8.6m/s t=22.1C h=79.0% p=945.1hPa 405.301 MHz Type=RS41-SGP ser=U3140561 Rastreio por PU1XMG https://sondehub.org/U3140561 & https://radiosondy.info/sond
PU1XMG-14U31405612022-12-07 01:21:56-22.5216-42.874215919879Clb=-10.7m/s t=20.6C h=80.7% p=915.8hPa 405.301 MHz Type=RS41-SGP ser=U3140561 Rastreio por PU1XMG https://sondehub.org/U3140561 & https://radiosondy.info/son
PU1XMG-14U31405612022-12-07 01:21:25-22.5199-42.8756137351187Clb=-10.0m/s t=18.6C h=85.9% p=884.0hPa 405.301 MHz Type=RS41-SGP ser=U3140561 Rastreio por PU1XMG https://sondehub.org/U3140561 & https://radiosondy.info/son
PU1XMG-14U31405612022-12-07 01:20:54-22.5174-42.8779140431443Clb=-8.0m/s t=17.2C h=87.6% p=858.0hPa 405.301 MHz Type=RS41-SGP ser=U3140561 Rastreio por PU1XMG https://sondehub.org/U3140561 & https://radiosondy.info/sond
PU1XMG-14U31405612022-12-07 01:20:23-22.5153-42.8804119331656Clb=-6.0m/s t=16.3C h=87.7% p=836.8hPa 405.301 MHz Type=RS41-SGP ser=U3140561 Rastreio por PU1XMG https://sondehub.org/U3140561 & https://radiosondy.info/sond
PU1XMG-14U31405612022-12-07 01:19:52-22.5144-42.883106301876Clb=-8.0m/s t=15.0C h=90.2% p=815.5hPa 405.301 MHz Type=RS41-SGP ser=U3140561 Rastreio por PU1XMG https://sondehub.org/U3140561 & https://radiosondy.info/sond
PU1XMG-14U31405612022-12-07 01:19:21-22.5143-42.885585282128Clb=-8.2m/s t=13.5C h=92.8% p=791.9hPa 405.301 MHz Type=RS41-SGP ser=U3140561 Rastreio por PU1XMG https://sondehub.org/U3140561 & https://radiosondy.info/sond
PU1XMG-14U31405612022-12-07 01:18:50-22.5145-42.887780242394Clb=-9.8m/s t=11.9C h=98.8% p=767.4hPa 405.301 MHz Type=RS41-SGP ser=U3140561 Rastreio por PU1XMG https://sondehub.org/U3140561 & https://radiosondy.info/sond
PU1XMG-14U31405612022-12-07 01:18:19-22.5146-42.889985262670Clb=-8.9m/s t=10.7C h=100.0% p=742.8hPa 405.301 MHz Type=RS41-SGP ser=U3140561 Rastreio por PU1XMG https://sondehub.org/U3140561 & https://radiosondy.info/son
PU1XMG-14U31405612022-12-07 01:17:48-22.5149-42.892277222945Clb=-9.8m/s t=9.4C h=100.0% p=718.8hPa 405.301 MHz Type=RS41-SGP ser=U3140561 Rastreio por PU1XMG https://sondehub.org/U3140561 & https://radiosondy.info/sond
PU1XMG-14U31405612022-12-07 01:16:46-22.5163-42.896364303494Clb=-11.4m/s t=6.6C h=100.0% p=672.6hPa 405.301 MHz Type=RS41-SGP ser=U3140561 Rastreio por PU1XMG https://sondehub.org/U3140561 & https://radiosondy.info/son
PU1XMG-14U31405612022-12-07 01:15:44-22.5187-42.900857304125Clb=-11.3m/s t=3.0C h=95.2% p=623.0hPa 405.301 MHz Type=RS41-SGP ser=U3140561 Rastreio por PU1XMG https://sondehub.org/U3140561 & https://radiosondy.info/sond
PU1XMG-14U31405612022-12-07 01:14:42-22.521-42.905668334792Clb=-11.7m/s t=-0.7C h=99.2% p=574.0hPa 405.301 MHz Type=RS41-SGP ser=U3140561 Rastreio por PU1XMG https://sondehub.org/U3140561 & https://radiosondy.info/son
PU1XMG-14U31405612022-12-07 01:14:10-22.5219-42.908263315125Clb=-8.0m/s t=-2.4C h=98.5% p=550.5hPa 405.301 MHz Type=RS41-SGP ser=U3140561 Rastreio por PU1XMG https://sondehub.org/U3140561 & https://radiosondy.info/sond
PU1XMG-14U31405612022-12-07 01:13:08-22.5245-42.913262305688Clb=-8.8m/s t=-5.1C h=98.1% p=512.6hPa 405.301 MHz Type=RS41-SGP ser=U3140561 Rastreio por PU1XMG https://sondehub.org/U3140561 & https://radiosondy.info/sond
PU1XMG-14U31405612022-12-07 01:12:06-22.527-42.917155305959Clb=-4.1m/s t=-6.5C h=100.0% p=495.1hPa 405.301 MHz Type=RS41-SGP ser=U3140561 Rastreio por PU1XMG https://sondehub.org/U3140561 & https://radiosondy.info/son
PU1XMG-14U31405612022-12-07 01:11:04-22.5298-42.920948286222Clb=-6.2m/s t=-7.9C h=94.7% p=478.9hPa 405.301 MHz Type=RS41-SGP ser=U3140561 Rastreio por PU1XMG https://sondehub.org/U3140561 & https://radiosondy.info/sond
PU1XMG-14U31405612022-12-07 01:10:02-22.5329-42.924852356916Clb=-8.3m/s t=-12.2C h=87.2% p=438.1hPa 405.301 MHz Type=RS41-SGP ser=U3140561 Rastreio por PU1XMG https://sondehub.org/U3140561 & https://radiosondy.info/son
PU1XMG-14U31405612022-12-07 01:09:00-22.5361-42.929759317544Clb=-6.0m/s t=-15.7C h=89.7% p=403.4hPa 405.301 MHz Type=RS41-SGP ser=U3140561 Rastreio por PU1XMG https://sondehub.org/U3140561 & https://radiosondy.info/son
PU1XMG-14U31405612022-12-07 01:07:58-22.5382-42.934676358232Clb=-8.3m/s t=-20.6C h=80.2% p=368.1hPa 405.301 MHz Type=RS41-SGP ser=U3140561 Rastreio por PU1XMG https://sondehub.org/U3140561 & https://radiosondy.info/son
PU1XMG-14U31405612022-12-07 01:05:22-22.5441-42.953369549507Clb=-4.2m/s t=-30.0C h=89.6% p=309.0hPa 405.301 MHz Type=RS41-SGP ser=U3140561 Rastreio por PU1XMG https://sondehub.org/U3140561 & https://radiosondy.info/son
PU1XMG-14U31405612022-12-07 01:04:20-22.5476-42.962566639962Clb=-9.9m/s t=-34.1C h=77.8% p=289.9hPa 405.301 MHz Type=RS41-SGP ser=U3140561 Rastreio por PU1XMG https://sondehub.org/U3140561 & https://radiosondy.info/son
PU1XMG-14U31405612022-12-07 01:03:18-22.5524-42.9725646910437Clb=-7.6m/s t=-38.0C h=73.9% p=270.7hPa 405.301 MHz Type=RS41-SGP ser=U3140561 Rastreio por PU1XMG https://sondehub.org/U3140561 & https://radiosondy.info/son
PU1XMG-14U31405612022-12-07 01:02:16-22.5564-42.9839758010976Clb=-14.1m/s t=-42.3C h=68.7% p=250.4hPa 405.301 MHz Type=RS41-SGP ser=U3140561 Rastreio por PU1XMG https://sondehub.org/U3140561 & https://radiosondy.info/so
PU1XMG-14U31405612022-12-07 01:01:14-22.5586-42.9984819111703Clb=-10.7m/s t=-48.9C h=57.0% p=224.5hPa 405.301 MHz Type=RS41-SGP ser=U3140561 Rastreio por PU1XMG https://sondehub.org/U3140561 & https://radiosondy.info/so
PU1XMG-14U31405612022-12-07 01:00:12-22.5617-43.0131718512279Clb=-10.0m/s t=-54.2C h=60.5% p=205.4hPa 405.301 MHz Type=RS41-SGP ser=U3140561 Rastreio por PU1XMG https://sondehub.org/U3140561 & https://radiosondy.info/so
PU1XMG-14U31405612022-12-07 00:59:10-22.5674-43.026618712703Clb=-5.7m/s t=-58.2C h=61.1% p=192.2hPa 405.301 MHz Type=RS41-SGP ser=U3140561 Rastreio por PU1XMG https://sondehub.org/U3140561 & https://radiosondy.info/son
PU1XMG-14U31405612022-12-07 00:58:38-22.5709-43.0324598712860Clb=-4.7m/s t=-59.6C h=46.6% p=187.5hPa 405.301 MHz Type=RS41-SGP ser=U3140561 Rastreio por PU1XMG https://sondehub.org/U3140561 & https://radiosondy.info/son
PU1XMG-14U31405612022-12-07 00:57:36-22.5781-43.0443547813139Clb=-4.4m/s t=-60.7C h=16.2% p=179.3hPa 405.301 MHz Type=RS41-SGP ser=U3140561 Rastreio por PU1XMG https://sondehub.org/U3140561 & https://radiosondy.info/son
PU1XMG-14U31405612022-12-07 00:56:34-22.5867-43.0544458313408Clb=-4.3m/s t=-61.8C h=14.6% p=171.7hPa 405.301 MHz Type=RS41-SGP ser=U3140561 Rastreio por PU1XMG https://sondehub.org/U3140561 & https://radiosondy.info/son
PU1XMG-14U31405612022-12-07 00:55:32-22.5961-43.0641448713684Clb=-4.9m/s t=-63.4C h=14.0% p=164.2hPa 405.301 MHz Type=RS41-SGP ser=U3140561 Rastreio por PU1XMG https://sondehub.org/U3140561 & https://radiosondy.info/son
PU1XMG-14U31405612022-12-07 00:54:30-22.6059-43.073337213980Clb=-5.0m/s t=-64.7C h=11.2% p=156.5hPa 405.301 MHz Type=RS41-SGP ser=U3140561 Rastreio por PU1XMG https://sondehub.org/U3140561 & https://radiosondy.info/son
PU1XMG-14U31405612022-12-07 00:53:28-22.6149-43.0788226914297Clb=-5.1m/s t=-65.1C h=8.8% p=148.6hPa 405.301 MHz Type=RS41-SGP ser=U3140561 Rastreio por PU1XMG https://sondehub.org/U3140561 & https://radiosondy.info/sond
PU1XMG-14U31405612022-12-07 00:52:26-22.6248-43.080725414620Clb=-5.5m/s t=-65.7C h=7.8% p=141.0hPa 405.301 MHz Type=RS41-SGP ser=U3140561 Rastreio por PU1XMG https://sondehub.org/U3140561 & https://radiosondy.info/sond
PU1XMG-14U31405612022-12-07 00:51:24-22.6338-43.08063526714960Clb=-5.5m/s t=-66.3C h=7.3% p=133.3hPa 405.301 MHz Type=RS41-SGP ser=U3140561 Rastreio por PU1XMG https://sondehub.org/U3140561 & https://radiosondy.info/sond
PU1XMG-14U31405612022-12-07 00:50:52-22.6387-43.07953426115135Clb=-5.6m/s t=-67.1C h=7.9% p=129.5hPa 405.301 MHz Type=RS41-SGP ser=U3140561 Rastreio por PU1XMG https://sondehub.org/U3140561 & https://radiosondy.info/sond
PU1XMG-14U31405612022-12-07 00:49:50-22.6461-43.07583305215500Clb=-5.9m/s t=-69.3C h=9.7% p=121.9hPa 405.301 MHz Type=RS41-SGP ser=U3140561 Rastreio por PU1XMG https://sondehub.org/U3140561 & https://radiosondy.info/sond
PU1XMG-14U31405612022-12-07 00:48:48-22.6521-43.07063214815860Clb=-6.0m/s t=-70.6C h=11.0% p=114.8hPa 405.301 MHz Type=RS41-SGP ser=U3140561 Rastreio por PU1XMG https://sondehub.org/U3140561 & https://radiosondy.info/son
PU1XMG-14U31405612022-12-07 00:47:46-22.6576-43.0653094316238Clb=-6.3m/s t=-72.5C h=11.4% p=107.7hPa 405.301 MHz Type=RS41-SGP ser=U3140561 Rastreio por PU1XMG https://sondehub.org/U3140561 & https://radiosondy.info/son
PU1XMG-14U31405612022-12-07 00:46:44-22.6628-43.05843055616641Clb=-6.6m/s t=-74.2C h=12.7% p=100.6hPa 405.301 MHz Type=RS41-SGP ser=U3140561 Rastreio por PU1XMG https://sondehub.org/U3140561 & https://radiosondy.info/son
PU1XMG-14U31405612022-12-07 00:45:42-22.6659-43.05042955917027Clb=-5.2m/s t=-75.9C h=12.7% p=94.2hPa 405.301 MHz Type=RS41-SGP ser=U3140561 Rastreio por PU1XMG https://sondehub.org/U3140561 & https://radiosondy.info/sond
PU1XMG-14U31405612022-12-07 00:44:40-22.6692-43.0422874617386Clb=-7.0m/s t=-76.2C h=12.9% p=88.4hPa 405.301 MHz Type=RS41-SGP ser=U3140561 Rastreio por PU1XMG https://sondehub.org/U3140561 & https://radiosondy.info/sond
PU1XMG-14U31405612022-12-07 00:43:38-22.6716-43.03272855617383Clb=2.2m/s t=-76.1C h=11.8% p=88.4hPa 405.301 MHz Type=RS41-SGP ser=U3140561 Rastreio por PU1XMG https://sondehub.org/U3140561 & https://radiosondy.info/sonde
PU1XMG-14U31405612022-12-07 00:42:36-22.6751-43.02422964416970Clb=11.1m/s t=-75.4C h=11.1% p=94.9hPa 405.301 MHz Type=RS41-SGP ser=U3140561 Rastreio por PU1XMG https://sondehub.org/U3140561 & https://radiosondy.info/sond
PU1XMG-14U31405612022-12-07 00:42:04-22.6767-43.02012785416759Clb=7.7m/s t=-75.0C h=10.6% p=98.4hPa 405.301 MHz Type=RS41-SGP ser=U3140561 Rastreio por PU1XMG https://sondehub.org/U3140561 & https://radiosondy.info/sonde
PU1XMG-14U31405612022-12-07 00:41:02-22.6818-43.01283154616290Clb=8.0m/s t=-73.0C h=9.9% p=106.6hPa 405.301 MHz Type=RS41-SGP ser=U3140561 Rastreio por PU1XMG https://sondehub.org/U3140561 & https://radiosondy.info/sonde
PU1XMG-14U31405612022-12-07 00:40:00-22.6873-43.00733294815810Clb=10.1m/s t=-70.7C h=8.7% p=115.6hPa 405.301 MHz Type=RS41-SGP ser=U3140561 Rastreio por PU1XMG https://sondehub.org/U3140561 & https://radiosondy.info/sond
PU1XMG-14U31405612022-12-07 00:38:58-22.694-43.00283245615367Clb=7.1m/s t=-68.9C h=8.9% p=124.7hPa 405.301 MHz Type=RS41-SGP ser=U3140561 Rastreio por PU1XMG https://sondehub.org/U3140561 & https://radiosondy.info/sonde
PU1XMG-14U31405612022-12-07 00:37:56-22.7029-43.000776114882Clb=13.2m/s t=-66.3C h=9.7% p=134.9hPa 405.301 MHz Type=RS41-SGP ser=U3140561 Rastreio por PU1XMG https://sondehub.org/U3140561 & https://radiosondy.info/sond
PU1XMG-14U31405612022-12-07 00:36:54-22.7128-43.0026317014418Clb=7.8m/s t=-65.9C h=12.5% p=145.6hPa 405.301 MHz Type=RS41-SGP ser=U3140561 Rastreio por PU1XMG https://sondehub.org/U3140561 & https://radiosondy.info/sond
PU1XMG-14U31405612022-12-07 00:35:52-22.7211-43.0078287213998Clb=9.0m/s t=-64.5C h=13.7% p=155.9hPa 405.301 MHz Type=RS41-SGP ser=U3140561 Rastreio por PU1XMG https://sondehub.org/U3140561 & https://radiosondy.info/sond
PU1XMG-14U31405612022-12-07 00:34:50-22.7311-43.0164510013568Clb=6.8m/s t=-62.4C h=14.8% p=166.9hPa 405.301 MHz Type=RS41-SGP ser=U3140561 Rastreio por PU1XMG https://sondehub.org/U3140561 & https://radiosondy.info/sond
PU1XMG-14U31405612022-12-07 00:33:16-22.744-43.031538112971Clb=9.2m/s t=-59.2C h=21.0% p=184.0hPa 405.301 MHz Type=RS41-SGP ser=U3140561 Rastreio por PU1XMG https://sondehub.org/U3140561 & https://radiosondy.info/sond
PU1XMG-14U31405612022-12-07 00:32:14-22.7505-43.0434648512575Clb=7.8m/s t=-56.6C h=37.0% p=196.0hPa 405.301 MHz Type=RS41-SGP ser=U3140561 Rastreio por PU1XMG https://sondehub.org/U3140561 & https://radiosondy.info/sond
PU1XMG-14U31405612022-12-07 00:31:12-22.7558-43.05756910412185Clb=6.4m/s t=-53.4C h=73.8% p=208.1hPa 405.301 MHz Type=RS41-SGP ser=U3140561 Rastreio por PU1XMG https://sondehub.org/U3140561 & https://radiosondy.info/sond
PU1XMG-14U31405612022-12-07 00:30:10-22.761-43.072668911808Clb=5.0m/s t=-50.0C h=77.0% p=220.7hPa 405.301 MHz Type=RS41-SGP ser=U3140561 Rastreio por PU1XMG https://sondehub.org/U3140561 & https://radiosondy.info/sond
PU1XMG-14U31405612022-12-07 00:29:08-22.7648-43.0864729111408Clb=3.6m/s t=-46.5C h=73.7% p=234.2hPa 405.301 MHz Type=RS41-SGP ser=U3140561 Rastreio por PU1XMG https://sondehub.org/U3140561 & https://radiosondy.info/sond
PU1XMG-14U31405612022-12-07 00:28:06-22.7694-43.0992746511001Clb=7.8m/s t=-42.8C h=70.9% p=248.8hPa 405.301 MHz Type=RS41-SGP ser=U3140561 Rastreio por PU1XMG https://sondehub.org/U3140561 & https://radiosondy.info/sond
PU1XMG-14U31405612022-12-07 00:27:04-22.7724-43.1115747010575Clb=8.8m/s t=-39.2C h=85.2% p=265.0hPa 405.301 MHz Type=RS41-SGP ser=U3140561 Rastreio por PU1XMG https://sondehub.org/U3140561 & https://radiosondy.info/sond
PU1XMG-14U31405612022-12-07 00:26:32-22.774-43.1169777210363Clb=8.4m/s t=-37.2C h=73.8% p=273.4hPa 405.301 MHz Type=RS41-SGP ser=U3140561 Rastreio por PU1XMG https://sondehub.org/U3140561 & https://radiosondy.info/sond
PU1XMG-14U31405612022-12-07 00:25:30-22.7772-43.128674639943Clb=3.3m/s t=-33.7C h=74.4% p=290.1hPa 405.301 MHz Type=RS41-SGP ser=U3140561 Rastreio por PU1XMG https://sondehub.org/U3140561 & https://radiosondy.info/sond
PU1XMG-14U31405612022-12-07 00:24:28-22.7811-43.139568529467Clb=4.7m/s t=-29.8C h=72.7% p=310.2hPa 405.301 MHz Type=RS41-SGP ser=U3140561 Rastreio por PU1XMG https://sondehub.org/U3140561 & https://radiosondy.info/sond
PU1XMG-14U31405612022-12-07 00:23:26-22.7845-43.149362619025Clb=7.9m/s t=-26.5C h=75.4% p=330.0hPa 405.301 MHz Type=RS41-SGP ser=U3140561 Rastreio por PU1XMG https://sondehub.org/U3140561 & https://radiosondy.info/sond
PU1XMG-14U31405612022-12-07 00:22:24-22.7884-43.15892548546Clb=7.2m/s t=-22.6C h=82.3% p=352.3hPa 405.301 MHz Type=RS41-SGP ser=U3140561 Rastreio por PU1XMG https://sondehub.org/U3140561 & https://radiosondy.info/sond
PU1XMG-14U31405612022-12-07 00:21:22-22.7901-43.166673438087Clb=4.9m/s t=-19.3C h=66.8% p=374.7hPa 405.301 MHz Type=RS41-SGP ser=U3140561 Rastreio por PU1XMG https://sondehub.org/U3140561 & https://radiosondy.info/sond
PU1XMG-14U31405612022-12-07 00:20:20-22.7912-43.170779337633Clb=6.8m/s t=-16.5C h=69.6% p=398.2hPa 405.301 MHz Type=RS41-SGP ser=U3140561 Rastreio por PU1XMG https://sondehub.org/U3140561 & https://radiosondy.info/sond
PU1XMG-14U31405612022-12-07 00:19:18-22.7936-43.175259337179Clb=7.3m/s t=-13.4C h=75.6% p=422.5hPa 405.301 MHz Type=RS41-SGP ser=U3140561 Rastreio por PU1XMG https://sondehub.org/U3140561 & https://radiosondy.info/sond
PU1XMG-14U31405612022-12-07 00:18:16-22.7966-43.179352336747Clb=6.6m/s t=-11.1C h=85.3% p=446.9hPa 405.301 MHz Type=RS41-SGP ser=U3140561 Rastreio por PU1XMG https://sondehub.org/U3140561 & https://radiosondy.info/sond
PU1XMG-14U31405612022-12-07 00:17:44-22.7982-43.181347336511Clb=10.1m/s t=-9.3C h=89.7% p=460.9hPa 405.301 MHz Type=RS41-SGP ser=U3140561 Rastreio por PU1XMG https://sondehub.org/U3140561 & https://radiosondy.info/sond
PU1XMG-14U31405612022-12-07 00:16:42-22.801-43.185154246057Clb=6.8m/s t=-6.8C h=71.1% p=488.5hPa 405.301 MHz Type=RS41-SGP ser=U3140561 Rastreio por PU1XMG https://sondehub.org/U3140561 & https://radiosondy.info/sonde
PU1XMG-14U31405612022-12-07 00:15:40-22.8038-43.188746265589Clb=7.5m/s t=-5.0C h=93.6% p=518.4hPa 405.301 MHz Type=RS41-SGP ser=U3140561 Rastreio por PU1XMG https://sondehub.org/U3140561 & https://radiosondy.info/sonde
PU1XMG-14U31405612022-12-07 00:14:38-22.8069-43.192534265136Clb=6.4m/s t=-2.3C h=99.8% p=548.7hPa 405.301 MHz Type=RS41-SGP ser=U3140561 Rastreio por PU1XMG https://sondehub.org/U3140561 & https://radiosondy.info/sonde
PU1XMG-14U31405612022-12-07 00:13:36-22.8094-43.197569434665Clb=8.1m/s t=-0.2C h=97.4% p=582.0hPa 405.301 MHz Type=RS41-SGP ser=U3140561 Rastreio por PU1XMG https://sondehub.org/U3140561 & https://radiosondy.info/sonde
PU1XMG-14U31405612022-12-07 00:12:34-22.8126-43.203757444175Clb=9.3m/s t=2.5C h=92.5% p=618.2hPa 405.301 MHz Type=RS41-SGP ser=U3140561 Rastreio por PU1XMG https://sondehub.org/U3140561 & https://radiosondy.info/sonde.
PU1XMG-14U31405612022-12-07 00:09:58-22.8201-43.21971353017Clb=6.8m/s t=8.9C h=98.4% p=711.7hPa 405.301 MHz Type=RS41-SGP ser=U3140561 Rastreio por PU1XMG https://sondehub.org/U3140561 & https://radiosondy.info/sonde.
PU1XMG-14U31405612022-12-07 00:09:27-22.8212-43.221861372804Clb=6.4m/s t=10.0C h=99.6% p=730.0hPa 405.301 MHz Type=RS41-SGP ser=U3140561 Rastreio por PU1XMG https://sondehub.org/U3140561 & https://radiosondy.info/sonde
PU1XMG-14U31405612022-12-07 00:08:56-22.8225-43.224467332604Clb=6.2m/s t=11.0C h=99.2% p=747.7hPa 405.301 MHz Type=RS41-SGP ser=U3140561 Rastreio por PU1XMG https://sondehub.org/U3140561 & https://radiosondy.info/sonde
PU1XMG-14U31405612022-12-07 00:08:25-22.8232-43.226966332404Clb=7.2m/s t=12.1C h=99.4% p=765.4hPa 405.301 MHz Type=RS41-SGP ser=U3140561 Rastreio por PU1XMG https://sondehub.org/U3140561 & https://radiosondy.info/sonde
PU1XMG-14U31405612022-12-07 00:07:54-22.8239-43.229689262210Clb=6.0m/s t=13.1C h=99.9% p=783.5hPa 405.301 MHz Type=RS41-SGP ser=U3140561 Rastreio por PU1XMG https://sondehub.org/U3140561 & https://radiosondy.info/sonde
PU1XMG-14U31405612022-12-07 00:07:23-22.8238-43.2321105332015Clb=5.8m/s t=14.0C h=100.0% p=801.9hPa 405.301 MHz Type=RS41-SGP ser=U3140561 Rastreio por PU1XMG https://sondehub.org/U3140561 & https://radiosondy.info/sond
PU1XMG-14U31405612022-12-07 00:06:52-22.8232-43.2346107281827Clb=4.1m/s t=15.0C h=96.3% p=819.8hPa 405.301 MHz Type=RS41-SGP ser=U3140561 Rastreio por PU1XMG https://sondehub.org/U3140561 & https://radiosondy.info/sonde
PU1XMG-14U31405612022-12-07 00:06:21-22.822-43.2377113391638Clb=7.2m/s t=16.4C h=91.4% p=837.8hPa 405.301 MHz Type=RS41-SGP ser=U3140561 Rastreio por PU1XMG https://sondehub.org/U3140561 & https://radiosondy.info/sonde
PU1XMG-14U31405612022-12-07 00:05:50-22.8204-43.2416121481453Clb=5.6m/s t=17.2C h=90.3% p=856.4hPa 405.301 MHz Type=RS41-SGP ser=U3140561 Rastreio por PU1XMG https://sondehub.org/U3140561 & https://radiosondy.info/sonde
PU1XMG-14U31405612022-12-07 00:05:19-22.8186-43.2449121431271Clb=8.1m/s t=18.9C h=83.5% p=874.9hPa 405.301 MHz Type=RS41-SGP ser=U3140561 Rastreio por PU1XMG https://sondehub.org/U3140561 & https://radiosondy.info/sonde
PU1XMG-14U31405612022-12-07 00:04:48-22.8167-43.2478137461081Clb=5.6m/s t=19.8C h=82.0% p=894.1hPa 405.301 MHz Type=RS41-SGP ser=U3140561 Rastreio por PU1XMG https://sondehub.org/U3140561 & https://radiosondy.info/sonde
PU1XMG-14U31405612022-12-07 00:04:17-22.8141-43.249715235892Clb=5.6m/s t=20.4C h=-1.0% p=913.7hPa 405.301 MHz Type=RS41-SGP ser=U3140561 Rastreio por PU1XMG https://sondehub.org/U3140561 & https://radiosondy.info/sonde
PU1XMG-14U31405612022-12-07 00:03:46-22.8117-43.25115324710Clb=5.8m/s t=-273.0C h=-1.0% p=-1.0hPa 405.301 MHz Type=RS41 ser=U3140561 Rastreio por PU1XMG https://sondehub.org/U3140561 & https://radiosondy.info/sonde.ph